sensor_id;sensor_type;location;lat;lon;timestamp;pressure;altitude;pressure_sealevel;temperature;humidity
13612;BME280;6877;51.436;6.774;2023-05-03T00:02:22;102315.66;;;3.55;87.95
13612;BME280;6877;51.436;6.774;2023-05-03T00:04:51;102315.50;;;3.50;87.84
13612;BME280;6877;51.436;6.774;2023-05-03T00:07:19;102320.47;;;3.44;87.96
13612;BME280;6877;51.436;6.774;2023-05-03T00:09:50;102323.81;;;3.41;89.17
13612;BME280;6877;51.436;6.774;2023-05-03T00:12:17;102331.47;;;3.38;89.63
13612;BME280;6877;51.436;6.774;2023-05-03T00:14:44;102329.78;;;3.40;90.16
13612;BME280;6877;51.436;6.774;2023-05-03T00:17:11;102322.75;;;3.36;90.46
13612;BME280;6877;51.436;6.774;2023-05-03T00:19:38;102324.63;;;3.40;90.81
13612;BME280;6877;51.436;6.774;2023-05-03T00:22:10;102326.56;;;3.46;90.39
13612;BME280;6877;51.436;6.774;2023-05-03T00:24:42;102324.50;;;3.37;90.03
13612;BME280;6877;51.436;6.774;2023-05-03T00:27:09;102328.69;;;3.34;90.84
13612;BME280;6877;51.436;6.774;2023-05-03T00:29:40;102334.44;;;3.25;90.67
13612;BME280;6877;51.436;6.774;2023-05-03T00:32:07;102336.56;;;3.13;90.63
13612;BME280;6877;51.436;6.774;2023-05-03T00:34:40;102332.81;;;3.05;91.12
13612;BME280;6877;51.436;6.774;2023-05-03T00:37:12;102340.44;;;3.01;91.74
13612;BME280;6877;51.436;6.774;2023-05-03T00:39:43;102325.66;;;2.97;92.26
13612;BME280;6877;51.436;6.774;2023-05-03T00:42:15;102334.44;;;3.02;93.11
13612;BME280;6877;51.436;6.774;2023-05-03T00:44:41;102325.03;;;3.05;92.68
13612;BME280;6877;51.436;6.774;2023-05-03T00:47:14;102330.41;;;3.09;93.47
13612;BME280;6877;51.436;6.774;2023-05-03T00:49:41;102318.50;;;3.14;93.14
13612;BME280;6877;51.436;6.774;2023-05-03T00:52:12;102325.78;;;3.24;94.18
13612;BME280;6877;51.436;6.774;2023-05-03T00:54:44;102325.66;;;3.21;93.09
13612;BME280;6877;51.436;6.774;2023-05-03T00:57:11;102325.50;;;3.17;93.41
13612;BME280;6877;51.436;6.774;2023-05-03T00:59:42;102325.22;;;3.33;94.57
13612;BME280;6877;51.436;6.774;2023-05-03T01:02:09;102333.72;;;3.29;94.32
13612;BME280;6877;51.436;6.774;2023-05-03T01:04:35;102326.69;;;3.25;93.89
13612;BME280;6877;51.436;6.774;2023-05-03T01:07:23;102325.00;;;3.27;94.94
13612;BME280;6877;51.436;6.774;2023-05-03T01:18:12;102332.69;;;3.48;94.96
13612;BME280;6877;51.436;6.774;2023-05-03T01:20:43;102327.53;;;3.49;95.27
13612;BME280;6877;51.436;6.774;2023-05-03T01:28:50;102326.13;;;3.58;95.53
13612;BME280;6877;51.436;6.774;2023-05-03T01:36:43;102329.97;;;3.69;95.13
13612;BME280;6877;51.436;6.774;2023-05-03T01:39:22;102335.69;;;3.60;94.88
13612;BME280;6877;51.436;6.774;2023-05-03T01:41:50;102328.59;;;3.55;95.06
13612;BME280;6877;51.436;6.774;2023-05-03T01:44:18;102336.69;;;3.40;94.92
13612;BME280;6877;51.436;6.774;2023-05-03T01:46:46;102333.53;;;3.24;95.39
13612;BME280;6877;51.436;6.774;2023-05-03T01:49:12;102339.91;;;3.10;95.74
13612;BME280;6877;51.436;6.774;2023-05-03T01:51:39;102335.22;;;3.00;96.37
13612;BME280;6877;51.436;6.774;2023-05-03T01:54:05;102346.34;;;2.97;96.88
13612;BME280;6877;51.436;6.774;2023-05-03T01:56:34;102345.84;;;2.85;96.58
13612;BME280;6877;51.436;6.774;2023-05-03T01:59:06;102347.63;;;2.86;98.05
13612;BME280;6877;51.436;6.774;2023-05-03T02:01:33;102346.50;;;2.79;97.69
13612;BME280;6877;51.436;6.774;2023-05-03T02:04:04;102357.34;;;2.71;97.16
13612;BME280;6877;51.436;6.774;2023-05-03T02:06:35;102357.91;;;2.62;97.65
13612;BME280;6877;51.436;6.774;2023-05-03T02:09:07;102355.34;;;2.64;98.44
13612;BME280;6877;51.436;6.774;2023-05-03T02:11:38;102351.59;;;2.55;98.22
13612;BME280;6877;51.436;6.774;2023-05-03T02:14:05;102353.97;;;2.51;98.62
13612;BME280;6877;51.436;6.774;2023-05-03T02:16:31;102358.53;;;2.57;99.47
13612;BME280;6877;51.436;6.774;2023-05-03T02:18:57;102358.78;;;2.63;99.06
13612;BME280;6877;51.436;6.774;2023-05-03T02:21:29;102359.00;;;2.69;99.34
13612;BME280;6877;51.436;6.774;2023-05-03T02:23:56;102358.50;;;2.77;98.50
13612;BME280;6877;51.436;6.774;2023-05-03T02:26:23;102361.38;;;2.85;99.08
13612;BME280;6877;51.436;6.774;2023-05-03T02:28:49;102365.81;;;2.89;98.18
13612;BME280;6877;51.436;6.774;2023-05-03T02:31:15;102372.13;;;2.96;98.52
13612;BME280;6877;51.436;6.774;2023-05-03T02:33:47;102367.06;;;2.99;98.10
13612;BME280;6877;51.436;6.774;2023-05-03T02:36:13;102373.22;;;3.02;98.73
13612;BME280;6877;51.436;6.774;2023-05-03T02:38:45;102373.31;;;3.04;98.25
13612;BME280;6877;51.436;6.774;2023-05-03T02:41:12;102375.94;;;3.06;98.46
13612;BME280;6877;51.436;6.774;2023-05-03T02:43:43;102372.78;;;3.13;98.96
13612;BME280;6877;51.436;6.774;2023-05-03T02:46:09;102374.66;;;3.17;98.48
13612;BME280;6877;51.436;6.774;2023-05-03T02:48:36;102367.63;;;3.13;98.37
13612;BME280;6877;51.436;6.774;2023-05-03T02:51:08;102374.06;;;3.01;98.17
13612;BME280;6877;51.436;6.774;2023-05-03T02:53:34;102375.00;;;3.04;98.56
13612;BME280;6877;51.436;6.774;2023-05-03T02:56:01;102363.25;;;3.12;98.96
13612;BME280;6877;51.436;6.774;2023-05-03T02:58:27;102366.94;;;3.18;99.23
13612;BME280;6877;51.436;6.774;2023-05-03T03:00:53;102361.00;;;3.21;98.61
13612;BME280;6877;51.436;6.774;2023-05-03T03:03:20;102360.19;;;3.22;98.45
13612;BME280;6877;51.436;6.774;2023-05-03T03:05:46;102363.25;;;3.34;98.14
13612;BME280;6877;51.436;6.774;2023-05-03T03:08:17;102357.88;;;3.30;98.08
13612;BME280;6877;51.436;6.774;2023-05-03T03:10:49;102357.00;;;3.29;97.97
13612;BME280;6877;51.436;6.774;2023-05-03T03:13:16;102342.31;;;3.28;97.68
13612;BME280;6877;51.436;6.774;2023-05-03T03:15:42;102344.19;;;3.32;97.93
13612;BME280;6877;51.436;6.774;2023-05-03T03:18:08;102335.81;;;3.39;97.21
13612;BME280;6877;51.436;6.774;2023-05-03T03:20:42;102334.09;;;3.40;96.98
13612;BME280;6877;51.436;6.774;2023-05-03T03:23:08;102327.31;;;3.43;96.58
13612;BME280;6877;51.436;6.774;2023-05-03T03:25:34;102332.72;;;3.49;96.10
13612;BME280;6877;51.436;6.774;2023-05-03T03:28:06;102333.50;;;3.47;96.12
13612;BME280;6877;51.436;6.774;2023-05-03T03:30:32;102330.84;;;3.45;96.18
13612;BME280;6877;51.436;6.774;2023-05-03T03:32:59;102323.94;;;3.44;96.70
13612;BME280;6877;51.436;6.774;2023-05-03T03:35:25;102324.03;;;3.47;96.31
13612;BME280;6877;51.436;6.774;2023-05-03T03:37:52;102328.22;;;3.44;96.30
13612;BME280;6877;51.436;6.774;2023-05-03T03:40:23;102327.31;;;3.43;96.53
13612;BME280;6877;51.436;6.774;2023-05-03T03:42:55;102320.56;;;3.47;96.66
13612;BME280;6877;51.436;6.774;2023-05-03T03:45:26;102325.06;;;3.53;96.05
13612;BME280;6877;51.436;6.774;2023-05-03T03:47:52;102314.78;;;3.54;96.00
13612;BME280;6877;51.436;6.774;2023-05-03T03:50:19;102314.03;;;3.58;95.57
13612;BME280;6877;51.436;6.774;2023-05-03T03:52:45;102314.78;;;3.54;96.17
13612;BME280;6877;51.436;6.774;2023-05-03T03:55:12;102318.13;;;3.52;96.15
13612;BME280;6877;51.436;6.774;2023-05-03T03:57:43;102313.78;;;3.51;96.37
13612;BME280;6877;51.436;6.774;2023-05-03T04:00:14;102303.44;;;3.51;96.60
13612;BME280;6877;51.436;6.774;2023-05-03T04:02:42;102306.84;;;3.49;96.62
13612;BME280;6877;51.436;6.774;2023-05-03T04:05:08;102292.25;;;3.52;96.35
13612;BME280;6877;51.436;6.774;2023-05-03T04:07:35;102293.09;;;3.51;96.35
13612;BME280;6877;51.436;6.774;2023-05-03T04:10:07;102289.72;;;3.53;96.37
13612;BME280;6877;51.436;6.774;2023-05-03T04:12:38;102299.25;;;3.54;96.46
13612;BME280;6877;51.436;6.774;2023-05-03T04:15:05;102301.75;;;3.53;96.17
13612;BME280;6877;51.436;6.774;2023-05-03T04:17:32;102305.19;;;3.52;96.60
13612;BME280;6877;51.436;6.774;2023-05-03T04:20:03;102314.66;;;3.51;96.49
13612;BME280;6877;51.436;6.774;2023-05-03T04:22:32;102315.63;;;3.53;96.66
13612;BME280;6877;51.436;6.774;2023-05-03T04:24:58;102320.72;;;3.52;96.54
13612;BME280;6877;51.436;6.774;2023-05-03T04:27:31;102327.88;;;3.59;96.38
13612;BME280;6877;51.436;6.774;2023-05-03T04:30:04;102335.47;;;3.54;96.62
13612;BME280;6877;51.436;6.774;2023-05-03T04:32:31;102342.31;;;3.52;96.68
13612;BME280;6877;51.436;6.774;2023-05-03T04:35:08;102339.72;;;3.52;96.52
13612;BME280;6877;51.436;6.774;2023-05-03T04:37:40;102338.91;;;3.53;96.70
13612;BME280;6877;51.436;6.774;2023-05-03T04:40:12;102338.13;;;3.56;96.68
13612;BME280;6877;51.436;6.774;2023-05-03T04:42:38;102345.22;;;3.61;96.58
13612;BME280;6877;51.436;6.774;2023-05-03T04:45:06;102344.59;;;3.68;96.16
13612;BME280;6877;51.436;6.774;2023-05-03T04:47:39;102343.03;;;3.72;95.88
13612;BME280;6877;51.436;6.774;2023-05-03T04:50:06;102338.09;;;3.80;95.58
13612;BME280;6877;51.436;6.774;2023-05-03T04:52:36;102345.56;;;3.96;94.82
13612;BME280;6877;51.436;6.774;2023-05-03T04:55:03;102337.22;;;4.05;94.41
13612;BME280;6877;51.436;6.774;2023-05-03T04:57:30;102343.63;;;4.16;93.77
13612;BME280;6877;51.436;6.774;2023-05-03T05:00:00;102349.31;;;4.31;92.89
13612;BME280;6877;51.436;6.774;2023-05-03T05:02:27;102345.22;;;4.38;92.39
13612;BME280;6877;51.436;6.774;2023-05-03T05:04:53;102345.41;;;4.44;92.12
13612;BME280;6877;51.436;6.774;2023-05-03T05:07:19;102345.69;;;4.52;91.77
13612;BME280;6877;51.436;6.774;2023-05-03T05:09:46;102347.72;;;4.62;90.61
13612;BME280;6877;51.436;6.774;2023-05-03T05:12:12;102355.50;;;4.62;90.84
13612;BME280;6877;51.436;6.774;2023-05-03T05:14:44;102364.13;;;4.61;90.77
13612;BME280;6877;51.436;6.774;2023-05-03T05:17:10;102371.94;;;4.62;90.63
13612;BME280;6877;51.436;6.774;2023-05-03T05:19:37;102371.16;;;4.65;90.31
13612;BME280;6877;51.436;6.774;2023-05-03T05:22:08;102377.28;;;4.67;90.54
13612;BME280;6877;51.436;6.774;2023-05-03T05:24:34;102382.66;;;4.73;90.22
13612;BME280;6877;51.436;6.774;2023-05-03T05:27:01;102389.94;;;4.85;90.08
13612;BME280;6877;51.436;6.774;2023-05-03T05:29:27;102392.88;;;4.96;89.85
13612;BME280;6877;51.436;6.774;2023-05-03T05:31:54;102397.22;;;4.97;88.80
13612;BME280;6877;51.436;6.774;2023-05-03T05:34:20;102392.97;;;4.99;88.82
13612;BME280;6877;51.436;6.774;2023-05-03T05:36:52;102389.53;;;5.28;88.66
13612;BME280;6877;51.436;6.774;2023-05-03T05:39:18;102395.38;;;5.81;85.47
13612;BME280;6877;51.436;6.774;2023-05-03T05:41:51;102385.84;;;6.47;83.92
13612;BME280;6877;51.436;6.774;2023-05-03T05:44:22;102396.53;;;7.36;79.64
13612;BME280;6877;51.436;6.774;2023-05-03T05:46:49;102392.16;;;7.78;75.95
13612;BME280;6877;51.436;6.774;2023-05-03T05:49:15;102395.16;;;7.99;74.64
13612;BME280;6877;51.436;6.774;2023-05-03T05:51:42;102397.28;;;8.70;72.03
13612;BME280;6877;51.436;6.774;2023-05-03T05:54:08;102405.13;;;9.33;67.36
13612;BME280;6877;51.436;6.774;2023-05-03T05:56:39;102399.25;;;9.49;65.82
13612;BME280;6877;51.436;6.774;2023-05-03T05:59:06;102400.66;;;9.98;64.44
13612;BME280;6877;51.436;6.774;2023-05-03T06:01:37;102404.41;;;10.24;63.33
13612;BME280;6877;51.436;6.774;2023-05-03T06:04:06;102393.03;;;10.20;62.41
13612;BME280;6877;51.436;6.774;2023-05-03T06:06:33;102398.56;;;9.65;63.55
13612;BME280;6877;51.436;6.774;2023-05-03T06:09:00;102410.72;;;8.96;65.96
13612;BME280;6877;51.436;6.774;2023-05-03T06:11:26;102407.94;;;8.34;68.81
13612;BME280;6877;51.436;6.774;2023-05-03T06:13:52;102418.06;;;8.16;70.04
13612;BME280;6877;51.436;6.774;2023-05-03T06:16:19;102418.00;;;8.12;70.20
13612;BME280;6877;51.436;6.774;2023-05-03T06:18:50;102421.00;;;7.87;70.91
13612;BME280;6877;51.436;6.774;2023-05-03T06:21:17;102414.63;;;8.18;70.33
13612;BME280;6877;51.436;6.774;2023-05-03T06:23:43;102423.09;;;8.53;69.10
13612;BME280;6877;51.436;6.774;2023-05-03T06:26:10;102416.09;;;8.51;69.08
13612;BME280;6877;51.436;6.774;2023-05-03T06:28:36;102421.16;;;8.42;69.78
13612;BME280;6877;51.436;6.774;2023-05-03T06:31:07;102413.16;;;8.32;69.92
13612;BME280;6877;51.436;6.774;2023-05-03T06:33:34;102418.53;;;8.40;69.38
13612;BME280;6877;51.436;6.774;2023-05-03T06:36:06;102417.38;;;8.26;69.74
13612;BME280;6877;51.436;6.774;2023-05-03T06:38:33;102415.06;;;8.40;69.45
13612;BME280;6877;51.436;6.774;2023-05-03T06:41:05;102410.84;;;8.49;69.18
13612;BME280;6877;51.436;6.774;2023-05-03T06:43:36;102416.28;;;8.62;68.71
13612;BME280;6877;51.436;6.774;2023-05-03T06:46:02;102426.53;;;9.05;67.10
13612;BME280;6877;51.436;6.774;2023-05-03T06:48:29;102416.53;;;9.39;65.49
13612;BME280;6877;51.436;6.774;2023-05-03T06:50:55;102414.91;;;9.47;64.87
13612;BME280;6877;51.436;6.774;2023-05-03T06:53:22;102418.63;;;9.66;64.48
13612;BME280;6877;51.436;6.774;2023-05-03T06:55:48;102424.88;;;9.79;63.30
13612;BME280;6877;51.436;6.774;2023-05-03T06:58:15;102426.06;;;10.12;62.20
13612;BME280;6877;51.436;6.774;2023-05-03T07:00:41;102422.84;;;10.33;61.57
13612;BME280;6877;51.436;6.774;2023-05-03T07:03:08;102422.19;;;10.58;59.50
13612;BME280;6877;51.436;6.774;2023-05-03T07:05:35;102418.91;;;10.87;58.40
13612;BME280;6877;51.436;6.774;2023-05-03T07:08:01;102422.78;;;11.59;57.29
13612;BME280;6877;51.436;6.774;2023-05-03T07:10:29;102423.81;;;13.35;52.71
13612;BME280;6877;51.436;6.774;2023-05-03T07:12:56;102425.81;;;14.45;48.28
13612;BME280;6877;51.436;6.774;2023-05-03T07:15:22;102428.56;;;14.27;46.95
13612;BME280;6877;51.436;6.774;2023-05-03T07:17:49;102419.25;;;13.71;48.49
13612;BME280;6877;51.436;6.774;2023-05-03T07:20:16;102413.16;;;13.68;48.34
13612;BME280;6877;51.436;6.774;2023-05-03T07:22:42;102414.03;;;13.64;49.21
13612;BME280;6877;51.436;6.774;2023-05-03T07:25:09;102409.78;;;13.23;49.98
13612;BME280;6877;51.436;6.774;2023-05-03T07:27:37;102413.34;;;12.95;49.68
13612;BME280;6877;51.436;6.774;2023-05-03T07:30:04;102412.47;;;12.97;50.36
13612;BME280;6877;51.436;6.774;2023-05-03T07:32:31;102393.84;;;13.65;48.70
13612;BME280;6877;51.436;6.774;2023-05-03T07:34:58;102408.63;;;13.89;47.46
13612;BME280;6877;51.436;6.774;2023-05-03T07:37:24;102405.22;;;13.75;47.16
13612;BME280;6877;51.436;6.774;2023-05-03T07:39:52;102389.31;;;13.93;46.54
13612;BME280;6877;51.436;6.774;2023-05-03T07:42:19;102384.09;;;13.85;46.38
13612;BME280;6877;51.436;6.774;2023-05-03T07:44:45;102377.97;;;13.85;45.92
13612;BME280;6877;51.436;6.774;2023-05-03T07:47:12;102379.91;;;13.49;46.36
13612;BME280;6877;51.436;6.774;2023-05-03T07:49:38;102383.88;;;14.19;45.20
13612;BME280;6877;51.436;6.774;2023-05-03T07:52:04;102385.66;;;15.82;42.10
13612;BME280;6877;51.436;6.774;2023-05-03T07:54:31;102390.63;;;17.09;38.50
13612;BME280;6877;51.436;6.774;2023-05-03T07:56:58;102393.16;;;18.69;35.80
13612;BME280;6877;51.436;6.774;2023-05-03T07:59:24;102406.00;;;20.62;32.62
13612;BME280;6877;51.436;6.774;2023-05-03T08:01:50;102407.91;;;23.08;29.08
13612;BME280;6877;51.436;6.774;2023-05-03T08:04:17;102405.28;;;24.02;26.59
13612;BME280;6877;51.436;6.774;2023-05-03T08:06:47;102409.88;;;23.81;25.66
13612;BME280;6877;51.436;6.774;2023-05-03T08:09:16;102390.03;;;23.48;26.38
13612;BME280;6877;51.436;6.774;2023-05-03T08:11:47;102395.38;;;24.76;24.88
13612;BME280;6877;51.436;6.774;2023-05-03T08:14:15;102403.81;;;25.67;23.52
13612;BME280;6877;51.436;6.774;2023-05-03T08:16:41;102398.72;;;26.10;22.86
13612;BME280;6877;51.436;6.774;2023-05-03T08:19:09;102399.53;;;27.59;21.44
13612;BME280;6877;51.436;6.774;2023-05-03T08:21:35;102394.53;;;26.95;20.57
13612;BME280;6877;51.436;6.774;2023-05-03T08:24:02;102391.00;;;25.41;21.50
13612;BME280;6877;51.436;6.774;2023-05-03T08:26:32;102402.81;;;25.04;22.18
13612;BME280;6877;51.436;6.774;2023-05-03T08:28:58;102398.53;;;26.44;21.84
13612;BME280;6877;51.436;6.774;2023-05-03T08:31:25;102397.03;;;26.84;21.44
13612;BME280;6877;51.436;6.774;2023-05-03T08:33:52;102386.91;;;27.73;20.06
13612;BME280;6877;51.436;6.774;2023-05-03T08:36:18;102389.72;;;28.92;19.43
13612;BME280;6877;51.436;6.774;2023-05-03T08:38:45;102380.81;;;29.53;18.21
13612;BME280;6877;51.436;6.774;2023-05-03T08:41:18;102378.63;;;27.49;19.68
13612;BME280;6877;51.436;6.774;2023-05-03T08:43:51;102391.28;;;27.04;19.73
13612;BME280;6877;51.436;6.774;2023-05-03T08:46:17;102379.59;;;27.76;19.57
13612;BME280;6877;51.436;6.774;2023-05-03T08:48:53;102391.56;;;28.78;18.19
13612;BME280;6877;51.436;6.774;2023-05-03T08:51:21;102395.63;;;27.91;18.17
13612;BME280;6877;51.436;6.774;2023-05-03T08:53:51;102386.53;;;27.24;19.38
13612;BME280;6877;51.436;6.774;2023-05-03T08:56:39;102386.34;;;28.62;17.97
13612;BME280;6877;51.436;6.774;2023-05-03T08:59:06;102369.97;;;30.85;16.32
13612;BME280;6877;51.436;6.774;2023-05-03T09:01:40;102382.16;;;30.44;16.27
13612;BME280;6877;51.436;6.774;2023-05-03T09:04:11;102382.44;;;30.63;16.05
13612;BME280;6877;51.436;6.774;2023-05-03T09:06:38;102376.38;;;30.13;17.11
13612;BME280;6877;51.436;6.774;2023-05-03T09:09:05;102371.19;;;28.22;17.53
13612;BME280;6877;51.436;6.774;2023-05-03T09:11:33;102368.88;;;28.42;18.13
13612;BME280;6877;51.436;6.774;2023-05-03T09:14:10;102381.50;;;28.55;18.07
13612;BME280;6877;51.436;6.774;2023-05-03T09:16:44;102375.28;;;28.67;17.87
13612;BME280;6877;51.436;6.774;2023-05-03T09:19:13;102376.22;;;28.40;18.17
13612;BME280;6877;51.436;6.774;2023-05-03T09:21:44;102365.91;;;30.33;16.66
13612;BME280;6877;51.436;6.774;2023-05-03T09:24:20;102370.47;;;31.12;15.83
13612;BME280;6877;51.436;6.774;2023-05-03T09:26:50;102358.19;;;31.20;15.66
13612;BME280;6877;51.436;6.774;2023-05-03T09:29:31;102359.97;;;29.55;16.48
13612;BME280;6877;51.436;6.774;2023-05-03T09:32:00;102351.13;;;26.28;19.27
13612;BME280;6877;51.436;6.774;2023-05-03T09:34:28;102360.25;;;26.56;19.00
13612;BME280;6877;51.436;6.774;2023-05-03T09:36:54;102360.03;;;27.18;18.75
13612;BME280;6877;51.436;6.774;2023-05-03T09:39:21;102360.00;;;28.28;17.72
13612;BME280;6877;51.436;6.774;2023-05-03T09:41:51;102356.38;;;28.02;17.96
13612;BME280;6877;51.436;6.774;2023-05-03T09:44:17;102358.44;;;27.57;18.31
13612;BME280;6877;51.436;6.774;2023-05-03T09:49:32;102333.22;;;26.59;19.06
13612;BME280;6877;51.436;6.774;2023-05-03T09:51:59;102350.44;;;26.10;19.89
13612;BME280;6877;51.436;6.774;2023-05-03T09:54:27;102338.31;;;26.03;20.22
13612;BME280;6877;51.436;6.774;2023-05-03T09:56:59;102336.88;;;25.82;20.53
13612;BME280;6877;51.436;6.774;2023-05-03T09:59:27;102328.53;;;26.32;20.10
13612;BME280;6877;51.436;6.774;2023-05-03T10:01:56;102328.09;;;25.94;20.17
13612;BME280;6877;51.436;6.774;2023-05-03T10:04:27;102326.06;;;25.67;20.46
13612;BME280;6877;51.436;6.774;2023-05-03T10:07:03;102322.59;;;27.15;19.26
13612;BME280;6877;51.436;6.774;2023-05-03T10:09:41;102320.75;;;26.28;19.21
13612;BME280;6877;51.436;6.774;2023-05-03T10:12:10;102321.88;;;25.78;20.21
13612;BME280;6877;51.436;6.774;2023-05-03T10:14:42;102313.25;;;25.73;20.30
13612;BME280;6877;51.436;6.774;2023-05-03T10:17:23;102313.47;;;24.37;21.43
13612;BME280;6877;51.436;6.774;2023-05-03T10:20:23;102319.63;;;24.39;21.77
13612;BME280;6877;51.436;6.774;2023-05-03T10:25:31;102312.31;;;24.93;21.50
13612;BME280;6877;51.436;6.774;2023-05-03T10:28:04;102304.25;;;25.10;20.54
13612;BME280;6877;51.436;6.774;2023-05-03T10:30:33;102313.56;;;24.70;21.28
13612;BME280;6877;51.436;6.774;2023-05-03T10:35:51;102321.38;;;25.55;20.04
13612;BME280;6877;51.436;6.774;2023-05-03T10:38:27;102322.69;;;26.40;19.53
13612;BME280;6877;51.436;6.774;2023-05-03T10:40:55;102326.56;;;25.58;19.97
13612;BME280;6877;51.436;6.774;2023-05-03T10:46:01;102321.75;;;25.81;19.82
13612;BME280;6877;51.436;6.774;2023-05-03T10:48:29;102317.75;;;25.56;19.45
13612;BME280;6877;51.436;6.774;2023-05-03T10:50:56;102299.50;;;25.47;19.75
13612;BME280;6877;51.436;6.774;2023-05-03T10:53:39;102303.47;;;25.87;19.20
13612;BME280;6877;51.436;6.774;2023-05-03T10:56:09;102296.03;;;25.77;19.87
13612;BME280;6877;51.436;6.774;2023-05-03T10:58:41;102308.28;;;25.97;19.66
13612;BME280;6877;51.436;6.774;2023-05-03T11:01:09;102300.38;;;25.63;19.87
13612;BME280;6877;51.436;6.774;2023-05-03T11:04:06;102301.59;;;25.42;20.27
13612;BME280;6877;51.436;6.774;2023-05-03T11:06:40;102300.84;;;23.69;21.87
13612;BME280;6877;51.436;6.774;2023-05-03T11:09:08;102289.66;;;23.42;22.30
13612;BME280;6877;51.436;6.774;2023-05-03T11:11:38;102279.97;;;23.58;22.16
13612;BME280;6877;51.436;6.774;2023-05-03T11:14:05;102268.00;;;23.29;22.81
13612;BME280;6877;51.436;6.774;2023-05-03T11:16:32;102268.66;;;24.24;21.87
13612;BME280;6877;51.436;6.774;2023-05-03T11:19:01;102265.09;;;23.72;22.19
13612;BME280;6877;51.436;6.774;2023-05-03T11:21:28;102259.50;;;23.40;22.35
13612;BME280;6877;51.436;6.774;2023-05-03T11:23:57;102249.31;;;22.91;22.89
13612;BME280;6877;51.436;6.774;2023-05-03T11:26:24;102258.06;;;21.28;24.71
13612;BME280;6877;51.436;6.774;2023-05-03T11:28:52;102244.97;;;20.27;26.45
13612;BME280;6877;51.436;6.774;2023-05-03T11:31:19;102253.88;;;19.16;28.02
13612;BME280;6877;51.436;6.774;2023-05-03T11:33:50;102247.69;;;18.55;28.95
13612;BME280;6877;51.436;6.774;2023-05-03T11:36:17;102243.63;;;17.37;31.11
13612;BME280;6877;51.436;6.774;2023-05-03T11:38:45;102243.72;;;16.92;32.35
13612;BME280;6877;51.436;6.774;2023-05-03T11:41:14;102244.66;;;16.90;32.28
13612;BME280;6877;51.436;6.774;2023-05-03T11:43:46;102248.16;;;16.45;32.46
13612;BME280;6877;51.436;6.774;2023-05-03T11:46:27;102242.63;;;16.58;32.95
13612;BME280;6877;51.436;6.774;2023-05-03T11:48:57;102241.00;;;16.51;33.12
13612;BME280;6877;51.436;6.774;2023-05-03T11:51:24;102238.53;;;16.43;33.92
13612;BME280;6877;51.436;6.774;2023-05-03T11:53:52;102235.03;;;16.41;32.99
13612;BME280;6877;51.436;6.774;2023-05-03T11:56:22;102230.78;;;16.32;32.83
13612;BME280;6877;51.436;6.774;2023-05-03T11:58:51;102228.47;;;16.60;32.55
13612;BME280;6877;51.436;6.774;2023-05-03T12:01:22;102231.66;;;16.79;32.91
13612;BME280;6877;51.436;6.774;2023-05-03T12:04:01;102236.38;;;17.07;32.88
13612;BME280;6877;51.436;6.774;2023-05-03T12:06:30;102230.06;;;17.12;32.84
13612;BME280;6877;51.436;6.774;2023-05-03T12:08:58;102241.34;;;16.80;33.05
13612;BME280;6877;51.436;6.774;2023-05-03T12:11:25;102233.50;;;16.29;33.26
13612;BME280;6877;51.436;6.774;2023-05-03T12:13:56;102227.59;;;16.15;34.05
13612;BME280;6877;51.436;6.774;2023-05-03T12:16:24;102234.69;;;16.58;33.40
13612;BME280;6877;51.436;6.774;2023-05-03T12:18:57;102236.06;;;16.32;32.25
13612;BME280;6877;51.436;6.774;2023-05-03T12:21:47;102231.13;;;16.14;32.68
13612;BME280;6877;51.436;6.774;2023-05-03T12:24:18;102222.38;;;16.12;32.68
13612;BME280;6877;51.436;6.774;2023-05-03T12:26:48;102223.72;;;16.33;31.95
13612;BME280;6877;51.436;6.774;2023-05-03T12:29:15;102219.41;;;16.30;31.39
13612;BME280;6877;51.436;6.774;2023-05-03T12:31:42;102208.25;;;16.14;32.35
13612;BME280;6877;51.436;6.774;2023-05-03T12:34:09;102215.19;;;15.70;33.62
13612;BME280;6877;51.436;6.774;2023-05-03T12:36:36;102200.06;;;15.80;33.24
13612;BME280;6877;51.436;6.774;2023-05-03T12:39:03;102194.25;;;16.08;32.97
13612;BME280;6877;51.436;6.774;2023-05-03T12:41:29;102197.38;;;15.82;33.21
13612;BME280;6877;51.436;6.774;2023-05-03T12:43:57;102188.81;;;15.69;33.74
13612;BME280;6877;51.436;6.774;2023-05-03T12:46:23;102195.09;;;15.59;33.20
13612;BME280;6877;51.436;6.774;2023-05-03T12:48:51;102190.94;;;15.45;33.05
13612;BME280;6877;51.436;6.774;2023-05-03T12:51:21;102179.63;;;15.37;33.81
13612;BME280;6877;51.436;6.774;2023-05-03T12:53:48;102175.72;;;15.60;34.00
13612;BME280;6877;51.436;6.774;2023-05-03T12:56:16;102181.06;;;15.57;33.31
13612;BME280;6877;51.436;6.774;2023-05-03T12:58:42;102181.19;;;15.47;33.87
13612;BME280;6877;51.436;6.774;2023-05-03T13:01:10;102184.88;;;15.37;33.08
13612;BME280;6877;51.436;6.774;2023-05-03T13:03:37;102176.97;;;15.39;32.95
13612;BME280;6877;51.436;6.774;2023-05-03T13:06:04;102163.69;;;15.45;32.86
13612;BME280;6877;51.436;6.774;2023-05-03T13:08:30;102169.78;;;15.47;33.53
13612;BME280;6877;51.436;6.774;2023-05-03T13:11:03;102156.78;;;15.36;33.43
13612;BME280;6877;51.436;6.774;2023-05-03T13:13:30;102158.25;;;15.52;33.32
13612;BME280;6877;51.436;6.774;2023-05-03T13:15:56;102158.47;;;15.40;32.87
13612;BME280;6877;51.436;6.774;2023-05-03T13:18:23;102145.50;;;15.25;34.55
13612;BME280;6877;51.436;6.774;2023-05-03T13:20:50;102148.19;;;15.23;34.84
13612;BME280;6877;51.436;6.774;2023-05-03T13:23:16;102132.13;;;15.37;35.33
13612;BME280;6877;51.436;6.774;2023-05-03T13:25:45;102126.09;;;15.30;35.56
13612;BME280;6877;51.436;6.774;2023-05-03T13:28:17;102124.31;;;15.33;36.16
13612;BME280;6877;51.436;6.774;2023-05-03T13:30:48;102116.19;;;15.43;36.35
13612;BME280;6877;51.436;6.774;2023-05-03T13:33:15;102114.09;;;15.64;36.20
13612;BME280;6877;51.436;6.774;2023-05-03T13:35:41;102094.44;;;15.82;34.61
13612;BME280;6877;51.436;6.774;2023-05-03T13:38:12;102101.44;;;15.84;33.86
13612;BME280;6877;51.436;6.774;2023-05-03T13:40:39;102100.75;;;15.73;33.73
13612;BME280;6877;51.436;6.774;2023-05-03T13:43:11;102100.13;;;15.57;33.90
13612;BME280;6877;51.436;6.774;2023-05-03T13:45:37;102100.06;;;15.60;34.37